Time;durP1;ratioP1;P1;durP2;ratioP2;P2;SDS_P1;SDS_P2;PMS_P1;PMS_P2;Temp;Humidity;BMP_temperature;BMP_pressure;BME280_temperature;BME280_humidity;BME280_pressure;Samples;Min_cycle;Max_cycle;Signal;HPM_P1;HPM_P2
2021/12/04 00:01:10;;;;;;;;;;;;;;;16.88;46.30;99944.28;4974914;28;19925;-46
2021/12/04 00:03:36;;;;;;;;;;;;;;;16.87;46.20;99931.06;4968877;28;19984;-50
2021/12/04 00:06:09;;;;;;;;;;;;;;;16.87;46.29;99936.44;4957588;28;19966;-50
2021/12/04 00:08:35;;;;;;;;;;;;;;;16.86;46.09;99921.31;4962983;28;19918;-47
2021/12/04 00:11:01;;;;;;;;;;;;;;;16.85;46.30;99919.66;4967072;28;19972;-46
2021/12/04 00:13:27;;;;;;;;;;;;;;;16.85;46.15;99922.34;4966506;28;19942;-46
2021/12/04 00:15:52;;;;;;;;;;;;;;;16.83;46.29;99919.84;4967422;28;19922;-50
2021/12/04 00:18:17;;;;;;;;;;;;;;;16.84;46.29;99912.63;4977589;28;19921;-48
2021/12/04 00:20:42;;;;;;;;;;;;;;;16.83;46.11;99910.94;4954136;28;19923;-46
2021/12/04 00:23:07;;;;;;;;;;;;;;;16.82;46.29;99904.75;4967241;28;20348;-46
2021/12/04 00:25:33;;;;;;;;;;;;;;;16.83;46.29;99902.91;4966257;28;19926;-47
2021/12/04 00:27:58;;;;;;;;;;;;;;;16.81;46.18;99889.63;4968407;28;19965;-48
2021/12/04 00:30:25;;;;;;;;;;;;;;;16.81;46.30;99891.50;4963948;29;20443;-50
2021/12/04 00:35:48;;;;;;;;;;;;;;;16.79;46.34;99896.22;4965755;29;19929;-47
2021/12/04 00:51:33;;;;;;;;;;;;;;;16.73;46.33;99892.38;4918846;29;20415;-48
2021/12/04 00:53:58;;;;;;;;;;;;;;;16.71;46.36;99881.81;4917163;29;19915;-49
2021/12/04 00:56:24;;;;;;;;;;;;;;;16.71;46.24;99887.16;4919141;29;20432;-45
2021/12/04 00:58:49;;;;;;;;;;;;;;;16.71;46.23;99881.81;4924661;29;19963;-48
2021/12/04 01:01:15;;;;;;;;;;;;;;;16.69;46.21;99878.47;4933757;29;19934;-46
2021/12/04 01:03:40;;;;;;;;;;;;;;;16.69;46.23;99882.97;4926437;29;20388;-46
2021/12/04 01:06:06;;;;;;;;;;;;;;;16.69;46.04;99875.78;4924892;29;19919;-47
2021/12/04 01:08:31;;;;;;;;;;;;;;;16.69;46.37;99878.47;4920029;29;19930;-46
2021/12/04 01:10:56;;;;;;;;;;;;;;;16.68;46.24;99878.63;4920825;29;19915;-45
2021/12/04 01:13:21;;;;;;;;;;;;;;;16.68;46.23;99882.16;4919691;29;19926;-49
2021/12/04 01:15:46;;;;;;;;;;;;;;;16.68;46.18;99881.31;4922419;29;19915;-45
2021/12/04 01:18:12;;;;;;;;;;;;;;;16.68;46.28;99881.31;4915589;29;19959;-49
2021/12/04 01:20:38;;;;;;;;;;;;;;;16.68;46.24;99882.16;4918699;29;19919;-47
2021/12/04 01:23:03;;;;;;;;;;;;;;;16.67;46.34;99888.53;4924477;29;20022;-46
2021/12/04 01:25:29;;;;;;;;;;;;;;;16.66;46.19;99889.56;4924628;29;19915;-46
2021/12/04 01:27:54;;;;;;;;;;;;;;;16.66;46.34;99888.72;4965477;28;19923;-47
2021/12/04 01:30:19;;;;;;;;;;;;;;;16.65;46.39;99881.66;4964443;28;20003;-49
2021/12/04 01:32:44;;;;;;;;;;;;;;;16.66;46.20;99872.63;4965489;28;19933;-46
2021/12/04 01:35:09;;;;;;;;;;;;;;;16.65;46.13;99871.78;4965146;29;19926;-45
2021/12/04 01:37:35;;;;;;;;;;;;;;;16.65;46.32;99866.44;4969168;28;20016;-46
2021/12/04 01:40:00;;;;;;;;;;;;;;;16.64;46.15;99862.06;4964999;29;19993;-48
2021/12/04 01:42:25;;;;;;;;;;;;;;;16.64;46.23;99855.84;4970567;28;19953;-49
2021/12/04 01:44:50;;;;;;;;;;;;;;;16.64;46.20;99858.53;4978075;28;19915;-46
2021/12/04 01:47:20;;;;;;;;;;;;;;;16.65;46.27;99852.16;4965133;28;19931;-47
2021/12/04 01:49:45;;;;;;;;;;;;;;;16.60;46.19;99851.84;4965007;28;19976;-47
2021/12/04 01:52:10;;;;;;;;;;;;;;;16.63;46.28;99856.88;4969550;28;19923;-50
2021/12/04 01:54:35;;;;;;;;;;;;;;;16.63;46.21;99864.94;4965224;28;19915;-48
2021/12/04 01:57:01;;;;;;;;;;;;;;;16.62;46.28;99868.63;4960071;28;20332;-49
2021/12/04 01:59:27;;;;;;;;;;;;;;;16.63;46.31;99863.06;4959979;29;19939;-50
2021/12/04 02:01:52;;;;;;;;;;;;;;;16.62;46.09;99855.22;4975775;28;19933;-53
2021/12/04 02:04:17;;;;;;;;;;;;;;;16.61;46.16;99851.69;4967458;29;19915;-51
2021/12/04 02:06:43;;;;;;;;;;;;;;;16.61;46.10;99851.69;4967299;28;19914;-53
2021/12/04 02:09:08;;;;;;;;;;;;;;;16.59;46.32;99845.66;4956476;29;20390;-50
2021/12/04 02:11:33;;;;;;;;;;;;;;;16.59;46.17;99839.47;4968328;28;19914;-47
2021/12/04 02:13:58;;;;;;;;;;;;;;;16.59;46.10;99834.91;4968195;28;19915;-49
2021/12/04 02:16:23;;;;;;;;;;;;;;;16.59;46.27;99834.09;4981248;28;19914;-51
2021/12/04 02:18:49;;;;;;;;;;;;;;;16.59;46.18;99834.09;4956265;29;20001;-47
2021/12/04 02:21:14;;;;;;;;;;;;;;;16.58;46.26;99827.06;4969486;28;19925;-48
2021/12/04 02:23:40;;;;;;;;;;;;;;;16.58;46.20;99832.44;4968366;28;19918;-49
2021/12/04 02:26:05;;;;;;;;;;;;;;;16.57;46.13;99823.56;4968014;28;19962;-50
2021/12/04 02:28:30;;;;;;;;;;;;;;;16.58;46.30;99824.38;4968044;29;19929;-46
2021/12/04 02:30:55;;;;;;;;;;;;;;;16.57;46.18;99822.72;4979015;28;19918;-48
2021/12/04 02:33:21;;;;;;;;;;;;;;;16.57;46.24;99817.34;4977554;28;19941;-48
2021/12/04 02:35:50;;;;;;;;;;;;;;;16.57;46.24;99817.34;4968205;28;20398;-44
2021/12/04 02:38:15;;;;;;;;;;;;;;;16.57;46.30;99811.97;4967732;29;19945;-47
2021/12/04 02:40:43;;;;;;;;;;;;;;;16.56;46.06;99819.16;4968779;28;20380;-47
2021/12/04 02:43:08;;;;;;;;;;;;;;;16.57;46.07;99818.19;4976938;28;20375;-46
2021/12/04 02:45:34;;;;;;;;;;;;;;;16.56;46.19;99816.50;4975020;28;20010;-47
2021/12/04 02:47:59;;;;;;;;;;;;;;;16.57;46.11;99820.88;4972275;28;19927;-46
2021/12/04 02:50:24;;;;;;;;;;;;;;;16.58;46.17;99816.31;4969758;28;19914;-48
2021/12/04 02:52:49;;;;;;;;;;;;;;;16.57;45.97;99811.97;4975132;28;19969;-49
2021/12/04 02:55:15;;;;;;;;;;;;;;;16.58;46.11;99808.28;4967827;28;19927;-46
2021/12/04 02:57:44;;;;;;;;;;;;;;;16.58;46.21;99800.22;4967945;29;20735;-48
2021/12/04 03:00:14;;;;;;;;;;;;;;;16.58;46.03;99798.38;4977231;28;20032;-47
2021/12/04 03:02:39;;;;;;;;;;;;;;;16.57;46.17;99788.66;4973868;28;19918;-47
2021/12/04 03:05:07;;;;;;;;;;;;;;;16.58;46.06;99795.69;4967714;28;19918;-45
2021/12/04 03:07:32;;;;;;;;;;;;;;;16.58;46.18;99802.91;4975920;28;19922;-48
2021/12/04 03:09:58;;;;;;;;;;;;;;;16.57;45.99;99796.72;4967100;29;19921;-48
2021/12/04 03:12:23;;;;;;;;;;;;;;;16.57;46.04;99796.72;4967296;28;19925;-48
2021/12/04 03:14:50;;;;;;;;;;;;;;;16.57;46.19;99791.34;4965738;29;19919;-49
2021/12/04 03:17:18;;;;;;;;;;;;;;;16.58;46.25;99797.53;4977624;28;19980;-47
2021/12/04 03:19:43;;;;;;;;;;;;;;;16.57;46.18;99793.19;4954495;29;20016;-47
2021/12/04 03:22:09;;;;;;;;;;;;;;;16.57;46.15;99785.16;4971988;28;20410;-46
2021/12/04 03:24:37;;;;;;;;;;;;;;;16.57;46.13;99785.16;4967176;28;20392;-49
2021/12/04 03:27:03;;;;;;;;;;;;;;;16.57;46.11;99777.09;4972729;28;19919;-51
2021/12/04 03:29:30;;;;;;;;;;;;;;;16.57;46.08;99775.25;4966698;28;19921;-48
2021/12/04 03:40:11;;;;;;;;;;;;;;;16.57;46.17;99775.25;4965817;29;19962;-48
2021/12/04 03:42:37;;;;;;;;;;;;;;;16.56;46.19;99765.50;4951885;28;19925;-47
2021/12/04 03:45:03;;;;;;;;;;;;;;;16.57;46.14;99766.38;4967645;28;19926;-46
2021/12/04 03:47:29;;;;;;;;;;;;;;;16.57;46.17;99758.31;4970956;28;19934;-51
2021/12/04 03:49:55;;;;;;;;;;;;;;;16.58;46.18;99754.59;4967278;28;19918;-46
2021/12/04 03:52:20;;;;;;;;;;;;;;;16.59;46.12;99753.59;4966698;28;19922;-49
2021/12/04 03:54:45;;;;;;;;;;;;;;;16.58;46.09;99744.72;4966896;28;19938;-47
2021/12/04 03:57:12;;;;;;;;;;;;;;;16.58;46.24;99739.34;4966463;29;19942;-49
2021/12/04 03:59:39;;;;;;;;;;;;;;;16.58;45.94;99742.03;4966333;28;19922;-49
2021/12/04 04:02:05;;;;;;;;;;;;;;;16.58;46.17;99738.50;4979533;28;19918;-49
2021/12/04 04:04:31;;;;;;;;;;;;;;;16.58;46.11;99739.34;4966430;29;19961;-46
2021/12/04 04:06:59;;;;;;;;;;;;;;;16.58;46.10;99730.47;4951348;29;19997;-47
2021/12/04 04:09:24;;;;;;;;;;;;;;;16.58;46.11;99725.94;4967528;28;20414;-49
2021/12/04 04:11:49;;;;;;;;;;;;;;;16.58;46.13;99720.56;4966623;28;19922;-48
2021/12/04 04:14:14;;;;;;;;;;;;;;;16.58;46.18;99720.56;4964514;28;19946;-47
2021/12/04 04:16:40;;;;;;;;;;;;;;;16.59;46.05;99707.97;4966251;28;19922;-47
2021/12/04 04:19:06;;;;;;;;;;;;;;;16.58;45.99;99707.13;4968147;28;19934;-48
2021/12/04 04:21:31;;;;;;;;;;;;;;;16.59;46.09;99705.28;4965191;28;19914;-46
2021/12/04 04:23:56;;;;;;;;;;;;;;;16.58;45.98;99696.41;4966315;29;19926;-49
2021/12/04 04:26:21;;;;;;;;;;;;;;;16.59;45.95;99690.00;4966220;28;20415;-45
2021/12/04 04:28:46;;;;;;;;;;;;;;;16.59;46.19;99698.06;4965625;29;19983;-47
2021/12/04 04:31:12;;;;;;;;;;;;;;;16.60;45.93;99701.56;4967774;28;19929;-47
2021/12/04 04:33:41;;;;;;;;;;;;;;;16.60;46.11;99694.34;4976298;28;19923;-48
2021/12/04 04:36:33;;;;;;;;;;;;;;;16.62;46.11;99696.88;4965917;28;19922;-47
2021/12/04 05:11:37;;;;;;;;;;;;;;;16.61;46.05;99697.88;4973486;28;19929;-46
2021/12/04 05:14:04;;;;;;;;;;;;;;;16.61;46.05;99696.06;4964424;28;19918;-47
2021/12/04 05:16:41;;;;;;;;;;;;;;;16.61;45.97;99697.88;4965448;28;19914;-45
2021/12/04 05:19:13;;;;;;;;;;;;;;;16.62;45.90;99700.41;4964607;29;19926;-48
2021/12/04 05:21:38;;;;;;;;;;;;;;;16.62;46.01;99694.19;4973458;28;19991;-50
2021/12/04 05:24:03;;;;;;;;;;;;;;;16.63;45.96;99693.16;4966356;28;20431;-49
2021/12/04 05:26:28;;;;;;;;;;;;;;;16.63;46.05;99691.31;4965505;29;19978;-46
2021/12/04 05:28:55;;;;;;;;;;;;;;;16.63;46.01;99690.50;4964750;28;19926;-47
2021/12/04 05:31:20;;;;;;;;;;;;;;;16.63;46.04;99685.13;4966119;28;20351;-51
2021/12/04 05:33:46;;;;;;;;;;;;;;;16.62;46.04;99684.28;4969715;28;19923;-48
2021/12/04 05:36:11;;;;;;;;;;;;;;;16.63;46.05;99685.13;4973313;28;20371;-48
2021/12/04 05:38:37;;;;;;;;;;;;;;;16.63;46.11;99687.81;4977393;28;19973;-48
2021/12/04 05:41:02;;;;;;;;;;;;;;;16.64;46.19;99686.78;4970753;28;20552;-50
2021/12/04 05:43:28;;;;;;;;;;;;;;;16.63;45.98;99682.44;4979642;28;19937;-47
2021/12/04 05:45:59;;;;;;;;;;;;;;;16.64;46.15;99679.56;4969002;28;19914;-48
2021/12/04 05:51:17;;;;;;;;;;;;;;;16.64;46.09;99674.19;4970031;28;19918;-48
2021/12/04 05:56:13;;;;;;;;;;;;;;;16.64;46.10;99663.47;4983237;28;19922;-50
2021/12/04 05:58:39;;;;;;;;;;;;;;;16.65;45.99;99673.19;4970175;28;20265;-47
2021/12/04 06:01:04;;;;;;;;;;;;;;;16.65;46.09;99673.19;4968188;28;19918;-47
2021/12/04 06:03:29;;;;;;;;;;;;;;;16.65;45.93;99670.50;4975985;28;19993;-47
2021/12/04 06:05:55;;;;;;;;;;;;;;;16.66;45.89;99669.50;4968901;29;19981;-49
2021/12/04 06:08:20;;;;;;;;;;;;;;;16.66;45.93;99655.25;4968447;28;20017;-51
2021/12/04 06:10:46;;;;;;;;;;;;;;;16.65;46.15;99662.47;4968528;28;19981;-50
2021/12/04 06:13:11;;;;;;;;;;;;;;;16.66;46.01;99660.59;4968649;28;19991;-49
2021/12/04 06:15:36;;;;;;;;;;;;;;;16.65;46.02;99670.50;4967653;28;19990;-46
2021/12/04 06:18:01;;;;;;;;;;;;;;;16.66;45.96;99665.97;4970456;28;19918;-49
2021/12/04 06:23:11;;;;;;;;;;;;;;;16.67;46.17;99664.94;4968276;28;19929;-48
2021/12/04 06:25:36;;;;;;;;;;;;;;;16.67;46.20;99665.78;4968008;28;19915;-49
2021/12/04 06:28:01;;;;;;;;;;;;;;;16.68;46.42;99666.63;4968013;28;19918;-47
2021/12/04 06:30:26;;;;;;;;;;;;;;;16.70;46.26;99664.59;4968615;28;19922;-48
2021/12/04 06:32:53;;;;;;;;;;;;;;;16.70;46.45;99664.59;4969840;28;20444;-51
2021/12/04 06:35:19;;;;;;;;;;;;;;;16.71;46.49;99660.88;4967970;28;19923;-46
2021/12/04 06:37:44;;;;;;;;;;;;;;;16.71;46.49;99653.66;4967164;28;19979;-47
2021/12/04 06:40:13;;;;;;;;;;;;;;;16.72;46.61;99649.13;4973450;28;19922;-47
2021/12/04 06:42:39;;;;;;;;;;;;;;;16.73;46.67;99656.19;4970802;28;19918;-48
2021/12/04 06:45:05;;;;;;;;;;;;;;;16.74;46.47;99655.19;4966830;28;19922;-51
2021/12/04 06:47:32;;;;;;;;;;;;;;;16.76;46.60;99663.03;4978078;28;19933;-47
2021/12/04 06:50:03;;;;;;;;;;;;;;;16.76;46.73;99668.41;4967900;28;19918;-48
2021/12/04 06:52:28;;;;;;;;;;;;;;;16.77;46.63;99664.69;4970772;28;20153;-48
2021/12/04 06:55:02;;;;;;;;;;;;;;;16.78;46.87;99671.72;4967761;28;20411;-47
2021/12/04 06:57:29;;;;;;;;;;;;;;;16.78;46.88;99683.31;4967770;28;19937;-51
2021/12/04 06:59:55;;;;;;;;;;;;;;;16.79;46.96;99684.16;4967440;28;19970;-48
2021/12/04 07:02:21;;;;;;;;;;;;;;;16.79;47.03;99679.63;4967612;28;19914;-48
2021/12/04 07:04:46;;;;;;;;;;;;;;;16.79;46.94;99674.25;4967769;28;19957;-49
2021/12/04 07:07:11;;;;;;;;;;;;;;;16.80;47.01;99670.53;4967614;28;19914;-50
2021/12/04 07:09:37;;;;;;;;;;;;;;;16.81;46.81;99663.31;4967648;28;19922;-49
2021/12/04 07:12:02;;;;;;;;;;;;;;;16.82;47.04;99660.47;4967736;28;19929;-47
2021/12/04 07:14:28;;;;;;;;;;;;;;;16.81;46.90;99648.03;4967138;28;19914;-47
2021/12/04 07:16:54;;;;;;;;;;;;;;;16.83;46.98;99647.88;4967122;28;19953;-50
2021/12/04 07:19:19;;;;;;;;;;;;;;;16.85;46.92;99640.47;4969073;28;20002;-47
2021/12/04 07:21:45;;;;;;;;;;;;;;;16.87;47.00;99633.06;4966983;28;19925;-49
2021/12/04 07:24:11;;;;;;;;;;;;;;;16.90;47.02;99632.66;4967408;28;19986;-49
2021/12/04 07:26:36;;;;;;;;;;;;;;;16.92;46.98;99631.47;4966697;28;19921;-47
2021/12/04 07:29:01;;;;;;;;;;;;;;;16.94;46.94;99632.09;4966476;28;19918;-52
2021/12/04 07:31:27;;;;;;;;;;;;;;;16.99;46.82;99640.47;4966790;28;19953;-46
2021/12/04 07:33:52;;;;;;;;;;;;;;;17.01;46.81;99639.44;4966945;29;20368;-50
2021/12/04 07:36:17;;;;;;;;;;;;;;;17.03;46.87;99638.22;4966996;29;19922;-49
2021/12/04 07:38:42;;;;;;;;;;;;;;;17.06;46.68;99645.06;4966993;28;19922;-48
2021/12/04 07:41:08;;;;;;;;;;;;;;;17.08;46.70;99648.41;4966858;28;19955;-46
2021/12/04 07:43:33;;;;;;;;;;;;;;;17.09;46.63;99640.16;4967257;28;20268;-49
2021/12/04 07:45:58;;;;;;;;;;;;;;;17.11;46.73;99634.59;4968308;28;19918;-48
2021/12/04 07:48:23;;;;;;;;;;;;;;;17.12;46.54;99631.75;4972612;28;19919;-53
2021/12/04 07:50:49;;;;;;;;;;;;;;;17.12;46.53;99637.09;4966911;29;19925;-49
2021/12/04 07:53:14;;;;;;;;;;;;;;;17.14;46.49;99637.75;4966664;28;19925;-50
2021/12/04 07:55:39;;;;;;;;;;;;;;;17.15;46.26;99636.72;4966741;28;19918;-49
2021/12/04 07:58:04;;;;;;;;;;;;;;;17.15;46.26;99641.25;4966981;28;20448;-47
2021/12/04 08:00:29;;;;;;;;;;;;;;;17.16;46.32;99642.91;4965702;28;19918;-51
2021/12/04 08:02:55;;;;;;;;;;;;;;;17.17;46.36;99641.91;4966979;28;20578;-49
2021/12/04 08:05:20;;;;;;;;;;;;;;;17.17;46.28;99645.44;4980433;28;20388;-46
2021/12/04 08:07:45;;;;;;;;;;;;;;;17.19;46.21;99647.91;4967107;28;20014;-49
2021/12/04 08:10:12;;;;;;;;;;;;;;;17.18;46.35;99638.19;4966564;28;19918;-50
2021/12/04 08:12:37;;;;;;;;;;;;;;;17.18;46.37;99638.19;4966433;28;19978;-51
2021/12/04 08:15:06;;;;;;;;;;;;;;;17.19;46.31;99637.19;4965891;29;19914;-50
2021/12/04 08:17:31;;;;;;;;;;;;;;;17.20;46.06;99638.84;4966465;28;19922;-50
2021/12/04 08:19:57;;;;;;;;;;;;;;;17.21;46.19;99637.84;4966707;29;19915;-50
2021/12/04 08:22:22;;;;;;;;;;;;;;;17.22;46.10;99639.50;4966154;28;20335;-49
2021/12/04 08:24:48;;;;;;;;;;;;;;;17.21;46.10;99630.59;4966436;28;19920;-51
2021/12/04 08:27:13;;;;;;;;;;;;;;;17.22;46.07;99634.94;4965822;28;19970;-50
2021/12/04 08:29:38;;;;;;;;;;;;;;;17.22;45.95;99634.13;4965752;28;19961;-52
2021/12/04 08:32:04;;;;;;;;;;;;;;;17.23;45.85;99638.47;4964605;29;19921;-50
2021/12/04 08:34:29;;;;;;;;;;;;;;;17.24;45.88;99640.13;4970872;28;19914;-49
2021/12/04 08:36:54;;;;;;;;;;;;;;;17.24;45.86;99645.50;4971427;28;19930;-49
2021/12/04 08:39:20;;;;;;;;;;;;;;;17.24;45.99;99638.25;4969738;28;19919;-49
2021/12/04 08:41:45;;;;;;;;;;;;;;;17.26;45.96;99640.78;4964600;29;19949;-51
2021/12/04 08:44:10;;;;;;;;;;;;;;;17.26;45.96;99632.72;4965563;28;19919;-51
2021/12/04 08:46:37;;;;;;;;;;;;;;;17.26;45.75;99632.72;4965761;29;19918;-52
2021/12/04 08:49:03;;;;;;;;;;;;;;;17.27;45.75;99628.19;4966116;29;20490;-51
2021/12/04 08:51:29;;;;;;;;;;;;;;;17.26;45.82;99616.59;4965855;29;19915;-51
2021/12/04 08:53:54;;;;;;;;;;;;;;;17.28;45.89;99619.09;4965730;29;19921;-50
2021/12/04 08:56:19;;;;;;;;;;;;;;;17.28;45.76;99619.09;4965714;28;20426;-50
2021/12/04 08:58:44;;;;;;;;;;;;;;;17.28;45.72;99611.84;4965600;28;19918;-50
2021/12/04 09:01:13;;;;;;;;;;;;;;;17.30;45.68;99606.31;4965146;28;19918;-49
2021/12/04 09:03:47;;;;;;;;;;;;;;;17.30;45.50;99592.88;4964552;29;19915;-50
2021/12/04 09:06:13;;;;;;;;;;;;;;;17.32;45.63;99598.88;4967424;28;19943;-47
2021/12/04 09:08:38;;;;;;;;;;;;;;;17.32;45.53;99601.56;4965374;28;19918;-48
2021/12/04 09:11:07;;;;;;;;;;;;;;;17.32;45.51;99601.56;4965491;28;19914;-48
2021/12/04 09:13:32;;;;;;;;;;;;;;;17.33;45.40;99595.16;4965562;29;19950;-47
2021/12/04 09:15:58;;;;;;;;;;;;;;;17.34;45.34;99588.81;4965184;28;19919;-49
2021/12/04 09:18:24;;;;;;;;;;;;;;;17.33;45.60;99582.59;4965811;29;19914;-48
2021/12/04 09:20:50;;;;;;;;;;;;;;;17.34;45.42;99572.69;4965548;28;20364;-50
2021/12/04 09:23:18;;;;;;;;;;;;;;;17.33;45.32;99563.78;4964051;29;19915;-51
2021/12/04 09:25:48;;;;;;;;;;;;;;;17.34;45.49;99564.63;4965535;28;19925;-50
2021/12/04 10:00:28;;;;;;;;;;;;;;;17.40;45.30;99553.94;4964327;29;19944;-49
2021/12/04 10:11:30;;;;;;;;;;;;;;;17.39;45.29;99533.47;4952737;29;19922;-49
2021/12/04 10:19:21;;;;;;;;;;;;;;;17.40;45.16;99532.44;4967054;28;19960;-49
2021/12/04 10:22:00;;;;;;;;;;;;;;;17.39;45.27;99514.66;4968995;28;20388;-48
2021/12/04 10:35:08;;;;;;;;;;;;;;;17.37;45.23;99508.63;4968470;28;20446;-48
2021/12/04 10:37:34;;;;;;;;;;;;;;;17.38;45.14;99498.75;4949553;28;20010;-45
2021/12/04 10:40:02;;;;;;;;;;;;;;;17.38;45.51;99504.13;4960346;28;19922;-49
2021/12/04 10:42:38;;;;;;;;;;;;;;;17.38;45.49;99507.63;4966072;28;20350;-47
2021/12/04 10:45:03;;;;;;;;;;;;;;;17.39;45.46;99503.09;4965173;28;19965;-42
2021/12/04 10:47:29;;;;;;;;;;;;;;;17.40;45.64;99508.25;4966247;28;19985;-45
2021/12/04 10:52:51;;;;;;;;;;;;;;;17.43;45.55;99499.81;4967623;28;19921;-47
2021/12/04 10:55:21;;;;;;;;;;;;;;;17.45;45.74;99499.59;4965428;28;20372;-47
2021/12/04 11:00:51;;;;;;;;;;;;;;;17.47;46.01;99495.72;4964779;28;19952;-47
2021/12/04 11:46:22;;;;;;;;;;;;;;;17.76;45.67;99410.59;4967017;28;19922;-46
2021/12/04 11:48:47;;;;;;;;;;;;;;;17.74;45.92;99394.63;4959817;28;19926;-46
2021/12/04 11:51:14;;;;;;;;;;;;;;;17.75;45.94;99400.84;4964463;28;20670;-44
2021/12/04 11:53:40;;;;;;;;;;;;;;;17.75;46.04;99398.16;4964732;28;19922;-43
2021/12/04 11:56:05;;;;;;;;;;;;;;;17.76;45.93;99393.63;4963807;28;19956;-48
2021/12/04 11:58:32;;;;;;;;;;;;;;;17.77;46.04;99385.34;4963264;28;20041;-46
2021/12/04 12:00:58;;;;;;;;;;;;;;;17.77;45.87;99390.72;4967134;28;19918;-46
2021/12/04 12:03:27;;;;;;;;;;;;;;;17.77;45.73;99385.34;4964653;28;19926;-42
2021/12/04 12:05:54;;;;;;;;;;;;;;;17.77;45.81;99384.53;4967203;28;19919;-44
2021/12/04 12:08:28;;;;;;;;;;;;;;;17.77;46.01;99387.22;4964847;28;19918;-43
2021/12/04 12:10:54;;;;;;;;;;;;;;;17.75;45.78;99382.03;4965750;28;20352;-44
2021/12/04 12:13:29;;;;;;;;;;;;;;;17.76;45.92;99386.38;4964629;28;19922;-47
2021/12/04 12:16:03;;;;;;;;;;;;;;;17.75;46.10;99379.34;4961671;28;19915;-45
2021/12/04 12:18:29;;;;;;;;;;;;;;;17.76;45.95;99374.81;4962359;28;20021;-47
2021/12/04 12:20:58;;;;;;;;;;;;;;;17.76;46.08;99374.81;4964158;28;19984;-42
2021/12/04 12:23:26;;;;;;;;;;;;;;;17.77;45.93;99371.91;4964188;28;19915;-42
2021/12/04 12:26:12;;;;;;;;;;;;;;;17.77;45.94;99371.09;4963803;28;19922;-45
2021/12/04 12:34:15;;;;;;;;;;;;;;;17.81;46.10;99356.22;4964876;28;19926;-45
2021/12/04 12:36:40;;;;;;;;;;;;;;;17.83;46.26;99356.84;4963214;28;19926;-44
2021/12/04 12:39:06;;;;;;;;;;;;;;;17.84;46.19;99358.50;4965940;28;19933;-47
2021/12/04 12:41:41;;;;;;;;;;;;;;;17.87;46.31;99355.41;4963078;28;19946;-45
2021/12/04 12:44:21;;;;;;;;;;;;;;;17.87;46.34;99345.47;4962216;28;19933;-44
2021/12/04 12:46:53;;;;;;;;;;;;;;;17.89;46.39;99340.75;4962460;28;20462;-44
2021/12/04 12:49:25;;;;;;;;;;;;;;;17.90;46.39;99323.59;4960395;28;19923;-42
2021/12/04 12:51:55;;;;;;;;;;;;;;;17.93;46.30;99331.25;4960041;28;19918;-45
2021/12/04 12:54:26;;;;;;;;;;;;;;;17.95;46.35;99323.81;4961638;28;19933;-43
2021/12/04 12:56:56;;;;;;;;;;;;;;;17.97;46.18;99324.44;4963885;28;20066;-47
2021/12/04 12:59:33;;;;;;;;;;;;;;;18.01;45.95;99332.09;4960025;28;20424;-50
2021/12/04 13:13:32;;;;;;;;;;;;;;;18.06;46.12;99314.34;4963173;28;20766;-47
2021/12/04 13:16:04;;;;;;;;;;;;;;;18.07;45.98;99315.16;4963106;28;19985;-46
2021/12/04 13:18:30;;;;;;;;;;;;;;;18.08;46.03;99316.81;4963815;28;20303;-44
2021/12/04 13:20:58;;;;;;;;;;;;;;;18.07;45.99;99318.69;4963508;28;19919;-43
2021/12/04 13:23:23;;;;;;;;;;;;;;;18.08;46.17;99316.81;4962424;28;19923;-46
2021/12/04 13:25:57;;;;;;;;;;;;;;;18.06;46.09;99306.28;4965844;28;19918;-46
2021/12/04 13:28:23;;;;;;;;;;;;;;;18.07;46.28;99307.09;4964107;28;19918;-48
2021/12/04 13:30:48;;;;;;;;;;;;;;;18.07;46.36;99307.09;4961875;28;19915;-45
2021/12/04 13:33:13;;;;;;;;;;;;;;;18.07;46.30;99313.31;4962482;28;19915;-46
2021/12/04 13:35:39;;;;;;;;;;;;;;;18.08;46.02;99303.38;4963299;28;19950;-46
2021/12/04 13:38:05;;;;;;;;;;;;;;;18.08;46.38;99304.19;4962989;28;19958;-47
2021/12/04 13:40:30;;;;;;;;;;;;;;;18.09;46.44;99300.47;4963260;28;19914;-45
2021/12/04 13:42:55;;;;;;;;;;;;;;;18.09;46.50;99302.34;4962633;28;19914;-60
2021/12/04 13:45:21;;;;;;;;;;;;;;;18.10;46.35;99296.78;4963111;28;20344;-42
2021/12/04 13:47:50;;;;;;;;;;;;;;;18.11;46.39;99295.72;4963159;28;19960;-46
2021/12/04 13:52:54;;;;;;;;;;;;;;;18.13;46.58;99306.28;4964981;28;20375;-44
2021/12/04 13:55:20;;;;;;;;;;;;;;;18.13;46.50;99304.41;4966441;28;19914;-46
2021/12/04 13:57:45;;;;;;;;;;;;;;;18.13;46.31;99284.75;4965528;28;19925;-46
2021/12/04 14:00:11;;;;;;;;;;;;;;;18.13;46.50;99295.53;4965827;28;19914;-47
2021/12/04 14:02:37;;;;;;;;;;;;;;;18.13;46.55;99292.84;4965284;28;19923;-50
2021/12/04 14:05:08;;;;;;;;;;;;;;;18.13;46.33;99290.97;4966444;28;19925;-52
2021/12/04 14:07:33;;;;;;;;;;;;;;;18.15;46.45;99298.84;4966449;28;19982;-46
2021/12/04 14:09:59;;;;;;;;;;;;;;;18.16;46.31;99295.13;4966874;28;20453;-47
2021/12/04 14:12:25;;;;;;;;;;;;;;;18.15;46.53;99280.84;4966121;28;19946;-53
2021/12/04 14:14:51;;;;;;;;;;;;;;;18.16;46.40;99281.69;4965009;28;19926;-47
2021/12/04 14:17:17;;;;;;;;;;;;;;;18.16;46.66;99290.56;4965976;28;19919;-48
2021/12/04 14:19:42;;;;;;;;;;;;;;;18.17;46.67;99292.22;4966618;28;19926;-47
2021/12/04 14:22:15;;;;;;;;;;;;;;;18.18;46.75;99293.03;4965931;28;19915;-51
2021/12/04 14:24:43;;;;;;;;;;;;;;;18.18;46.71;99296.59;4966540;28;19922;-48
2021/12/04 14:27:10;;;;;;;;;;;;;;;18.18;46.55;99304.66;4965459;28;19965;-50
2021/12/04 14:29:36;;;;;;;;;;;;;;;18.18;46.77;99296.59;4965761;28;19919;-49
2021/12/04 14:32:02;;;;;;;;;;;;;;;18.19;46.68;99297.41;4966021;28;19957;-49
2021/12/04 14:34:30;;;;;;;;;;;;;;;18.19;46.68;99295.56;4965966;28;19918;-54
2021/12/04 14:37:14;;;;;;;;;;;;;;;18.19;46.61;99292.88;4966052;28;19962;-51
2021/12/04 14:39:40;;;;;;;;;;;;;;;18.18;46.58;99288.53;4963527;28;20404;-51
2021/12/04 14:42:25;;;;;;;;;;;;;;;18.18;46.49;99284.97;4964809;28;20001;-49
2021/12/04 14:44:56;;;;;;;;;;;;;;;18.17;46.26;99284.16;4961782;28;19915;-48
2021/12/04 14:47:21;;;;;;;;;;;;;;;18.18;46.36;99290.34;4965197;28;19918;-49
2021/12/04 14:49:51;;;;;;;;;;;;;;;18.18;46.22;99290.34;4964694;28;19995;-47
2021/12/04 14:52:21;;;;;;;;;;;;;;;18.19;46.34;99294.72;4965784;28;19929;-50
2021/12/04 14:54:46;;;;;;;;;;;;;;;18.19;46.15;99297.41;4966063;28;19950;-50
2021/12/04 14:57:12;;;;;;;;;;;;;;;18.19;46.15;99297.41;4966741;28;19986;-46
2021/12/04 14:59:37;;;;;;;;;;;;;;;18.20;46.23;99304.44;4965151;28;19934;-47
2021/12/04 15:02:11;;;;;;;;;;;;;;;18.21;46.30;99303.41;4964855;28;19934;-45
2021/12/04 15:04:40;;;;;;;;;;;;;;;18.21;46.24;99309.63;4964410;28;19918;-46
2021/12/04 15:07:05;;;;;;;;;;;;;;;18.21;46.49;99312.31;4965666;28;19964;-49
2021/12/04 15:09:30;;;;;;;;;;;;;;;18.22;46.29;99310.44;4965024;28;19919;-50
2021/12/04 15:11:58;;;;;;;;;;;;;;;18.12;46.49;99299.25;4965148;28;19944;-47
2021/12/04 15:14:33;;;;;;;;;;;;;;;18.22;46.22;99310.44;4965314;28;19950;-46
2021/12/04 15:17:05;;;;;;;;;;;;;;;18.22;46.36;99318.50;4965832;29;19915;-49
2021/12/04 15:19:40;;;;;;;;;;;;;;;18.21;46.26;99320.38;4967606;28;19934;-49
2021/12/04 15:22:08;;;;;;;;;;;;;;;18.21;46.02;99322.25;4967331;29;19970;-47
2021/12/04 15:24:35;;;;;;;;;;;;;;;18.21;46.27;99323.06;4967290;28;19930;-47
2021/12/04 15:27:02;;;;;;;;;;;;;;;18.20;46.14;99323.28;4967529;28;19941;-50
2021/12/04 15:29:28;;;;;;;;;;;;;;;18.21;45.90;99330.31;4965826;28;19926;-47
2021/12/04 15:31:54;;;;;;;;;;;;;;;18.20;45.90;99329.47;4967067;29;20400;-48
2021/12/04 15:34:31;;;;;;;;;;;;;;;18.19;46.10;99327.84;4977885;28;19914;-50
2021/12/04 15:37:02;;;;;;;;;;;;;;;18.20;45.85;99326.78;4967127;29;19950;-46
2021/12/04 15:39:32;;;;;;;;;;;;;;;18.19;46.14;99335.06;4967124;28;19925;-47
2021/12/04 15:42:19;;;;;;;;;;;;;;;18.15;46.13;99337.34;4972800;28;19918;-49
2021/12/04 15:52:48;;;;;;;;;;;;;;;18.01;46.18;99338.31;4966454;28;20005;-47
2021/12/04 15:55:18;;;;;;;;;;;;;;;18.00;46.54;99350.09;4966653;28;19918;-50
2021/12/04 15:57:54;;;;;;;;;;;;;;;17.98;46.36;99344.09;4966787;28;20052;-47
2021/12/04 16:00:19;;;;;;;;;;;;;;;17.95;46.62;99350.69;4966910;28;19924;-48
2021/12/04 16:02:49;;;;;;;;;;;;;;;17.93;46.57;99343.88;4966397;28;19953;-49
2021/12/04 16:05:18;;;;;;;;;;;;;;;17.92;46.47;99350.25;4969430;28;19914;-49